Terminal Aerodrome Forecast
Issued by NWS Newport/Morehead City, NC

Home | Current Version | Previous Version | Text Only | Print | Product List | Glossary On
Versions: 1 2 3 4 5 6 7 8 9 10 11 12 13 14 15 16
000
FTUS42 KMHX 231100 RRA
TAFEWN
TAF
KEWN 231141Z 2312/2412 06008KT P6SM BKN060 BKN100
     FM231800 06010KT P6SM -RA OVC035
     FM232200 08010KT 3SM RA BR SCT005 OVC009
     FM240200 17015G23KT 1 1/2SM RA BR OVC005 WS015/19040KT=

USA.gov is the U.S. government's official web portal to all federal, state and local government web resources and services.